sensor_id;sensor_type;location;lat;lon;timestamp;temperature;humidity
12291;DHT22;6208;48.956;9.076;2024-01-30T00:00:53;5.00;99.90
12291;DHT22;6208;48.956;9.076;2024-01-30T00:03:37;4.50;99.90
12291;DHT22;6208;48.956;9.076;2024-01-30T00:06:22;4.60;99.90
12291;DHT22;6208;48.956;9.076;2024-01-30T00:09:06;4.70;99.90
12291;DHT22;6208;48.956;9.076;2024-01-30T00:11:50;5.70;99.90
12291;DHT22;6208;48.956;9.076;2024-01-30T00:14:35;4.60;99.90
12291;DHT22;6208;48.956;9.076;2024-01-30T00:17:19;4.50;99.90
12291;DHT22;6208;48.956;9.076;2024-01-30T00:20:05;7.30;99.90
12291;DHT22;6208;48.956;9.076;2024-01-30T00:22:49;4.50;99.90
12291;DHT22;6208;48.956;9.076;2024-01-30T00:25:33;4.40;99.90
12291;DHT22;6208;48.956;9.076;2024-01-30T00:28:17;4.50;99.90
12291;DHT22;6208;48.956;9.076;2024-01-30T00:31:01;6.40;99.90
12291;DHT22;6208;48.956;9.076;2024-01-30T00:33:45;4.40;99.90
12291;DHT22;6208;48.956;9.076;2024-01-30T00:36:30;4.60;99.90
12291;DHT22;6208;48.956;9.076;2024-01-30T00:39:14;6.20;99.90
12291;DHT22;6208;48.956;9.076;2024-01-30T00:44:44;4.50;99.90
12291;DHT22;6208;48.956;9.076;2024-01-30T00:47:28;4.30;99.90
12291;DHT22;6208;48.956;9.076;2024-01-30T00:50:13;4.30;99.90
12291;DHT22;6208;48.956;9.076;2024-01-30T00:52:57;6.40;99.90
12291;DHT22;6208;48.956;9.076;2024-01-30T00:55:41;4.20;99.90
12291;DHT22;6208;48.956;9.076;2024-01-30T00:58:25;4.10;99.90
12291;DHT22;6208;48.956;9.076;2024-01-30T01:01:09;7.50;99.90
12291;DHT22;6208;48.956;9.076;2024-01-30T01:03:53;6.30;99.90
12291;DHT22;6208;48.956;9.076;2024-01-30T01:06:37;4.20;99.90
12291;DHT22;6208;48.956;9.076;2024-01-30T01:09:21;5.20;99.90
12291;DHT22;6208;48.956;9.076;2024-01-30T01:12:06;4.20;99.90
12291;DHT22;6208;48.956;9.076;2024-01-30T01:14:51;4.10;99.90
12291;DHT22;6208;48.956;9.076;2024-01-30T01:17:38;4.00;99.90
12291;DHT22;6208;48.956;9.076;2024-01-30T01:20:22;5.10;99.90
12291;DHT22;6208;48.956;9.076;2024-01-30T01:23:06;4.80;99.90
12291;DHT22;6208;48.956;9.076;2024-01-30T01:25:50;4.00;99.90
12291;DHT22;6208;48.956;9.076;2024-01-30T01:28:34;5.30;99.90
12291;DHT22;6208;48.956;9.076;2024-01-30T01:31:19;7.30;99.90
12291;DHT22;6208;48.956;9.076;2024-01-30T01:34:06;6.20;99.90
12291;DHT22;6208;48.956;9.076;2024-01-30T01:36:51;4.10;99.90
12291;DHT22;6208;48.956;9.076;2024-01-30T01:39:35;4.00;99.90
12291;DHT22;6208;48.956;9.076;2024-01-30T01:42:20;6.80;99.90
12291;DHT22;6208;48.956;9.076;2024-01-30T01:45:04;4.10;99.90
12291;DHT22;6208;48.956;9.076;2024-01-30T01:47:51;4.10;99.90
12291;DHT22;6208;48.956;9.076;2024-01-30T01:50:36;4.20;99.90
12291;DHT22;6208;48.956;9.076;2024-01-30T01:53:20;6.90;99.90
12291;DHT22;6208;48.956;9.076;2024-01-30T01:56:05;4.00;99.90
12291;DHT22;6208;48.956;9.076;2024-01-30T01:58:51;4.00;99.90
12291;DHT22;6208;48.956;9.076;2024-01-30T02:01:38;3.90;99.90
12291;DHT22;6208;48.956;9.076;2024-01-30T02:04:22;3.80;99.90
12291;DHT22;6208;48.956;9.076;2024-01-30T02:07:07;4.20;99.90
12291;DHT22;6208;48.956;9.076;2024-01-30T02:09:51;3.90;99.90
12291;DHT22;6208;48.956;9.076;2024-01-30T02:12:35;5.10;99.90
12291;DHT22;6208;48.956;9.076;2024-01-30T02:15:19;3.90;99.90
12291;DHT22;6208;48.956;9.076;2024-01-30T02:18:04;3.90;99.90
12291;DHT22;6208;48.956;9.076;2024-01-30T02:20:48;3.90;99.90
12291;DHT22;6208;48.956;9.076;2024-01-30T02:23:33;3.70;99.90
12291;DHT22;6208;48.956;9.076;2024-01-30T02:26:18;4.60;99.90
12291;DHT22;6208;48.956;9.076;2024-01-30T02:29:02;3.60;99.90
12291;DHT22;6208;48.956;9.076;2024-01-30T02:31:47;4.40;99.90
12291;DHT22;6208;48.956;9.076;2024-01-30T02:34:31;4.10;99.90
12291;DHT22;6208;48.956;9.076;2024-01-30T02:37:16;3.80;99.90
12291;DHT22;6208;48.956;9.076;2024-01-30T02:40:00;3.80;99.90
12291;DHT22;6208;48.956;9.076;2024-01-30T02:42:44;4.70;99.90
12291;DHT22;6208;48.956;9.076;2024-01-30T02:45:28;5.10;99.90
12291;DHT22;6208;48.956;9.076;2024-01-30T02:48:12;3.80;99.90
12291;DHT22;6208;48.956;9.076;2024-01-30T02:50:56;3.80;99.90
12291;DHT22;6208;48.956;9.076;2024-01-30T02:53:42;3.70;99.90
12291;DHT22;6208;48.956;9.076;2024-01-30T02:56:26;5.10;99.90
12291;DHT22;6208;48.956;9.076;2024-01-30T02:59:10;3.50;99.90
12291;DHT22;6208;48.956;9.076;2024-01-30T03:01:54;3.60;99.90
12291;DHT22;6208;48.956;9.076;2024-01-30T03:04:41;3.60;99.90
12291;DHT22;6208;48.956;9.076;2024-01-30T03:07:25;3.50;99.90
12291;DHT22;6208;48.956;9.076;2024-01-30T03:10:09;3.60;99.90
12291;DHT22;6208;48.956;9.076;2024-01-30T03:12:54;4.00;99.90
12291;DHT22;6208;48.956;9.076;2024-01-30T03:15:38;3.40;99.90
12291;DHT22;6208;48.956;9.076;2024-01-30T03:18:22;4.60;99.90
12291;DHT22;6208;48.956;9.076;2024-01-30T03:21:06;4.60;99.90
12291;DHT22;6208;48.956;9.076;2024-01-30T03:23:50;4.00;99.90
12291;DHT22;6208;48.956;9.076;2024-01-30T03:26:34;3.50;99.90
12291;DHT22;6208;48.956;9.076;2024-01-30T03:29:18;3.80;99.90
12291;DHT22;6208;48.956;9.076;2024-01-30T03:32:02;3.70;99.90
12291;DHT22;6208;48.956;9.076;2024-01-30T03:34:47;3.20;99.90
12291;DHT22;6208;48.956;9.076;2024-01-30T03:37:32;3.50;99.90
12291;DHT22;6208;48.956;9.076;2024-01-30T03:40:16;3.50;99.90
12291;DHT22;6208;48.956;9.076;2024-01-30T03:43:00;3.30;99.90
12291;DHT22;6208;48.956;9.076;2024-01-30T03:45:44;3.20;99.90
12291;DHT22;6208;48.956;9.076;2024-01-30T03:48:29;3.00;99.90
12291;DHT22;6208;48.956;9.076;2024-01-30T03:51:13;3.10;99.90
12291;DHT22;6208;48.956;9.076;2024-01-30T03:53:59;3.10;99.90
12291;DHT22;6208;48.956;9.076;2024-01-30T03:56:43;3.10;99.90
12291;DHT22;6208;48.956;9.076;2024-01-30T03:59:27;3.20;99.90
12291;DHT22;6208;48.956;9.076;2024-01-30T04:02:11;3.20;99.90
12291;DHT22;6208;48.956;9.076;2024-01-30T04:04:56;5.10;99.90
12291;DHT22;6208;48.956;9.076;2024-01-30T04:07:40;6.50;99.90
12291;DHT22;6208;48.956;9.076;2024-01-30T04:10:24;3.10;99.90
12291;DHT22;6208;48.956;9.076;2024-01-30T04:13:11;3.30;99.90
12291;DHT22;6208;48.956;9.076;2024-01-30T04:15:55;4.60;99.90
12291;DHT22;6208;48.956;9.076;2024-01-30T04:18:40;4.70;99.90
12291;DHT22;6208;48.956;9.076;2024-01-30T04:21:24;4.20;99.90
12291;DHT22;6208;48.956;9.076;2024-01-30T04:24:08;4.40;99.90
12291;DHT22;6208;48.956;9.076;2024-01-30T04:26:52;5.70;99.90
12291;DHT22;6208;48.956;9.076;2024-01-30T04:29:36;6.00;99.90
12291;DHT22;6208;48.956;9.076;2024-01-30T04:32:20;4.90;99.90
12291;DHT22;6208;48.956;9.076;2024-01-30T04:35:04;4.20;99.90
12291;DHT22;6208;48.956;9.076;2024-01-30T04:37:49;3.40;99.90
12291;DHT22;6208;48.956;9.076;2024-01-30T04:40:33;3.60;99.90
12291;DHT22;6208;48.956;9.076;2024-01-30T04:43:17;3.50;99.90
12291;DHT22;6208;48.956;9.076;2024-01-30T04:46:03;3.60;99.90
12291;DHT22;6208;48.956;9.076;2024-01-30T04:48:48;3.50;99.90
12291;DHT22;6208;48.956;9.076;2024-01-30T04:51:32;4.30;99.90
12291;DHT22;6208;48.956;9.076;2024-01-30T04:54:16;5.20;99.90
12291;DHT22;6208;48.956;9.076;2024-01-30T04:57:00;3.10;99.90
12291;DHT22;6208;48.956;9.076;2024-01-30T04:59:45;4.50;99.90
12291;DHT22;6208;48.956;9.076;2024-01-30T05:02:29;6.20;99.90
12291;DHT22;6208;48.956;9.076;2024-01-30T05:05:13;3.80;99.90
12291;DHT22;6208;48.956;9.076;2024-01-30T05:07:57;3.10;99.90
12291;DHT22;6208;48.956;9.076;2024-01-30T05:10:41;3.80;99.90
12291;DHT22;6208;48.956;9.076;2024-01-30T05:16:10;3.10;99.90
12291;DHT22;6208;48.956;9.076;2024-01-30T05:18:54;3.50;99.90
12291;DHT22;6208;48.956;9.076;2024-01-30T05:21:38;3.00;99.90
12291;DHT22;6208;48.956;9.076;2024-01-30T05:24:22;3.10;99.90
12291;DHT22;6208;48.956;9.076;2024-01-30T05:27:06;4.80;99.90
12291;DHT22;6208;48.956;9.076;2024-01-30T05:29:50;3.20;99.90
12291;DHT22;6208;48.956;9.076;2024-01-30T05:32:34;5.30;99.90
12291;DHT22;6208;48.956;9.076;2024-01-30T05:35:18;5.10;99.90
12291;DHT22;6208;48.956;9.076;2024-01-30T05:38:05;3.40;99.90
12291;DHT22;6208;48.956;9.076;2024-01-30T05:40:49;5.50;99.90
12291;DHT22;6208;48.956;9.076;2024-01-30T05:43:33;3.30;99.90
12291;DHT22;6208;48.956;9.076;2024-01-30T05:46:17;6.50;99.90
12291;DHT22;6208;48.956;9.076;2024-01-30T05:49:01;3.40;99.90
12291;DHT22;6208;48.956;9.076;2024-01-30T05:51:45;3.40;99.90
12291;DHT22;6208;48.956;9.076;2024-01-30T05:54:29;5.60;99.90
12291;DHT22;6208;48.956;9.076;2024-01-30T05:57:13;4.60;99.90
12291;DHT22;6208;48.956;9.076;2024-01-30T05:59:57;3.10;99.90
12291;DHT22;6208;48.956;9.076;2024-01-30T06:02:42;3.10;99.90
12291;DHT22;6208;48.956;9.076;2024-01-30T06:05:26;5.80;99.90
12291;DHT22;6208;48.956;9.076;2024-01-30T06:08:10;3.20;99.90
12291;DHT22;6208;48.956;9.076;2024-01-30T06:10:54;6.30;99.90
12291;DHT22;6208;48.956;9.076;2024-01-30T06:13:38;4.10;99.90
12291;DHT22;6208;48.956;9.076;2024-01-30T06:16:22;3.20;99.90
12291;DHT22;6208;48.956;9.076;2024-01-30T06:19:07;3.10;99.90
12291;DHT22;6208;48.956;9.076;2024-01-30T06:21:51;3.00;99.90
12291;DHT22;6208;48.956;9.076;2024-01-30T06:24:35;3.00;99.90
12291;DHT22;6208;48.956;9.076;2024-01-30T06:27:19;4.00;99.90
12291;DHT22;6208;48.956;9.076;2024-01-30T06:30:04;4.70;99.90
12291;DHT22;6208;48.956;9.076;2024-01-30T06:32:49;2.90;99.90
12291;DHT22;6208;48.956;9.076;2024-01-30T06:35:33;2.80;99.90
12291;DHT22;6208;48.956;9.076;2024-01-30T06:38:19;3.60;99.90
12291;DHT22;6208;48.956;9.076;2024-01-30T06:43:47;2.90;99.90
12291;DHT22;6208;48.956;9.076;2024-01-30T06:46:32;5.10;99.90
12291;DHT22;6208;48.956;9.076;2024-01-30T06:49:16;4.70;99.90
12291;DHT22;6208;48.956;9.076;2024-01-30T06:52:00;3.30;99.90
12291;DHT22;6208;48.956;9.076;2024-01-30T06:54:44;3.80;99.90
12291;DHT22;6208;48.956;9.076;2024-01-30T06:57:29;2.90;99.90
12291;DHT22;6208;48.956;9.076;2024-01-30T07:00:15;3.60;99.90
12291;DHT22;6208;48.956;9.076;2024-01-30T07:03:00;3.00;99.90
12291;DHT22;6208;48.956;9.076;2024-01-30T07:05:44;3.00;99.90
12291;DHT22;6208;48.956;9.076;2024-01-30T07:08:28;4.90;99.90
12291;DHT22;6208;48.956;9.076;2024-01-30T07:11:21;3.10;99.90
12291;DHT22;6208;48.956;9.076;2024-01-30T07:14:07;3.00;99.90
12291;DHT22;6208;48.956;9.076;2024-01-30T07:16:51;5.90;99.90
12291;DHT22;6208;48.956;9.076;2024-01-30T07:19:35;2.90;99.90
12291;DHT22;6208;48.956;9.076;2024-01-30T07:22:19;5.00;99.90
12291;DHT22;6208;48.956;9.076;2024-01-30T07:25:03;3.10;99.90
12291;DHT22;6208;48.956;9.076;2024-01-30T07:27:48;3.10;99.90
12291;DHT22;6208;48.956;9.076;2024-01-30T07:30:32;5.60;99.90
12291;DHT22;6208;48.956;9.076;2024-01-30T07:33:16;3.10;99.90
12291;DHT22;6208;48.956;9.076;2024-01-30T07:36:00;4.80;99.90
12291;DHT22;6208;48.956;9.076;2024-01-30T07:38:44;5.70;99.90
12291;DHT22;6208;48.956;9.076;2024-01-30T07:41:28;4.20;99.90
12291;DHT22;6208;48.956;9.076;2024-01-30T07:44:12;3.90;99.90
12291;DHT22;6208;48.956;9.076;2024-01-30T07:46:56;3.30;99.90
12291;DHT22;6208;48.956;9.076;2024-01-30T07:49:41;3.40;99.90
12291;DHT22;6208;48.956;9.076;2024-01-30T07:52:25;3.50;99.90
12291;DHT22;6208;48.956;9.076;2024-01-30T07:55:09;5.10;99.90
12291;DHT22;6208;48.956;9.076;2024-01-30T07:57:53;3.70;99.90
12291;DHT22;6208;48.956;9.076;2024-01-30T08:00:38;3.90;99.90
12291;DHT22;6208;48.956;9.076;2024-01-30T08:03:22;3.60;99.90
12291;DHT22;6208;48.956;9.076;2024-01-30T08:06:06;3.50;99.90
12291;DHT22;6208;48.956;9.076;2024-01-30T08:08:50;4.60;99.90
12291;DHT22;6208;48.956;9.076;2024-01-30T08:11:37;3.50;99.90
12291;DHT22;6208;48.956;9.076;2024-01-30T08:14:21;5.50;99.90
12291;DHT22;6208;48.956;9.076;2024-01-30T08:17:05;4.30;99.90
12291;DHT22;6208;48.956;9.076;2024-01-30T08:19:51;3.70;99.90
12291;DHT22;6208;48.956;9.076;2024-01-30T08:22:35;3.70;99.90
12291;DHT22;6208;48.956;9.076;2024-01-30T08:25:19;3.70;99.90
12291;DHT22;6208;48.956;9.076;2024-01-30T08:28:03;4.00;99.90
12291;DHT22;6208;48.956;9.076;2024-01-30T08:30:48;3.50;99.90
12291;DHT22;6208;48.956;9.076;2024-01-30T08:33:32;4.20;99.90
12291;DHT22;6208;48.956;9.076;2024-01-30T08:36:17;5.30;99.90
12291;DHT22;6208;48.956;9.076;2024-01-30T08:39:01;3.20;99.90
12291;DHT22;6208;48.956;9.076;2024-01-30T08:41:45;3.40;99.90
12291;DHT22;6208;48.956;9.076;2024-01-30T08:44:29;4.40;99.90
12291;DHT22;6208;48.956;9.076;2024-01-30T08:47:13;6.40;99.90
12291;DHT22;6208;48.956;9.076;2024-01-30T08:49:57;4.30;99.90
12291;DHT22;6208;48.956;9.076;2024-01-30T08:52:41;3.60;99.90
12291;DHT22;6208;48.956;9.076;2024-01-30T08:55:25;3.70;99.90
12291;DHT22;6208;48.956;9.076;2024-01-30T08:58:09;3.80;99.90
12291;DHT22;6208;48.956;9.076;2024-01-30T09:00:54;3.80;99.90
12291;DHT22;6208;48.956;9.076;2024-01-30T09:03:38;3.90;99.90
12291;DHT22;6208;48.956;9.076;2024-01-30T09:06:24;4.00;99.90
12291;DHT22;6208;48.956;9.076;2024-01-30T09:09:12;4.10;99.90
12291;DHT22;6208;48.956;9.076;2024-01-30T09:11:56;7.00;99.90
12291;DHT22;6208;48.956;9.076;2024-01-30T09:14:42;6.90;99.90
12291;DHT22;6208;48.956;9.076;2024-01-30T09:17:26;4.20;99.90
12291;DHT22;6208;48.956;9.076;2024-01-30T09:20:10;4.20;99.90
12291;DHT22;6208;48.956;9.076;2024-01-30T09:22:54;4.30;99.90
12291;DHT22;6208;48.956;9.076;2024-01-30T09:25:39;5.50;99.90
12291;DHT22;6208;48.956;9.076;2024-01-30T09:28:23;6.60;99.90
12291;DHT22;6208;48.956;9.076;2024-01-30T09:31:10;4.50;99.90
12291;DHT22;6208;48.956;9.076;2024-01-30T09:33:54;4.60;99.90
12291;DHT22;6208;48.956;9.076;2024-01-30T09:36:39;4.60;99.90
12291;DHT22;6208;48.956;9.076;2024-01-30T09:39:23;4.50;99.90
12291;DHT22;6208;48.956;9.076;2024-01-30T09:42:20;5.70;99.90
12291;DHT22;6208;48.956;9.076;2024-01-30T09:45:12;4.70;99.90
12291;DHT22;6208;48.956;9.076;2024-01-30T09:47:59;4.80;99.90
12291;DHT22;6208;48.956;9.076;2024-01-30T09:50:43;5.80;99.90
12291;DHT22;6208;48.956;9.076;2024-01-30T09:53:28;4.90;99.90
12291;DHT22;6208;48.956;9.076;2024-01-30T09:56:15;5.00;99.90
12291;DHT22;6208;48.956;9.076;2024-01-30T09:59:00;7.80;99.90
12291;DHT22;6208;48.956;9.076;2024-01-30T10:01:45;5.00;99.90
12291;DHT22;6208;48.956;9.076;2024-01-30T10:04:30;5.00;99.90
12291;DHT22;6208;48.956;9.076;2024-01-30T10:07:16;5.10;99.90
12291;DHT22;6208;48.956;9.076;2024-01-30T10:10:00;6.60;99.90
12291;DHT22;6208;48.956;9.076;2024-01-30T10:12:44;5.90;99.90
12291;DHT22;6208;48.956;9.076;2024-01-30T10:15:29;5.20;99.90
12291;DHT22;6208;48.956;9.076;2024-01-30T10:18:13;5.20;99.90
12291;DHT22;6208;48.956;9.076;2024-01-30T10:20:58;5.20;99.90
12291;DHT22;6208;48.956;9.076;2024-01-30T10:23:43;5.30;99.90
12291;DHT22;6208;48.956;9.076;2024-01-30T10:26:28;5.30;99.90
12291;DHT22;6208;48.956;9.076;2024-01-30T10:29:13;5.60;99.90
12291;DHT22;6208;48.956;9.076;2024-01-30T10:32:01;5.40;99.90
12291;DHT22;6208;48.956;9.076;2024-01-30T10:37:31;5.40;99.90
12291;DHT22;6208;48.956;9.076;2024-01-30T10:40:16;5.50;99.90
12291;DHT22;6208;48.956;9.076;2024-01-30T10:43:03;5.60;99.90
12291;DHT22;6208;48.956;9.076;2024-01-30T10:45:49;5.60;99.90
12291;DHT22;6208;48.956;9.076;2024-01-30T10:48:42;7.90;99.90
12291;DHT22;6208;48.956;9.076;2024-01-30T10:51:27;6.20;99.90
12291;DHT22;6208;48.956;9.076;2024-01-30T10:54:12;5.70;99.90
12291;DHT22;6208;48.956;9.076;2024-01-30T10:57:00;5.80;99.90
12291;DHT22;6208;48.956;9.076;2024-01-30T10:59:46;5.80;99.90
12291;DHT22;6208;48.956;9.076;2024-01-30T11:02:32;5.80;99.90
12291;DHT22;6208;48.956;9.076;2024-01-30T11:05:23;5.80;99.90
12291;DHT22;6208;48.956;9.076;2024-01-30T11:08:11;5.90;99.90
12291;DHT22;6208;48.956;9.076;2024-01-30T11:10:56;6.00;99.90
12291;DHT22;6208;48.956;9.076;2024-01-30T11:13:42;6.50;99.90
12291;DHT22;6208;48.956;9.076;2024-01-30T11:16:31;6.50;99.90
12291;DHT22;6208;48.956;9.076;2024-01-30T11:19:31;6.10;99.90
12291;DHT22;6208;48.956;9.076;2024-01-30T11:22:15;6.20;99.90
12291;DHT22;6208;48.956;9.076;2024-01-30T11:25:04;6.20;99.90
12291;DHT22;6208;48.956;9.076;2024-01-30T11:27:53;6.30;99.90
12291;DHT22;6208;48.956;9.076;2024-01-30T11:30:38;8.00;99.90
12291;DHT22;6208;48.956;9.076;2024-01-30T11:33:29;6.30;99.90
12291;DHT22;6208;48.956;9.076;2024-01-30T11:36:18;6.40;99.90
12291;DHT22;6208;48.956;9.076;2024-01-30T11:39:04;6.50;99.90
12291;DHT22;6208;48.956;9.076;2024-01-30T11:41:51;6.40;99.90
12291;DHT22;6208;48.956;9.076;2024-01-30T11:44:36;6.50;99.90
12291;DHT22;6208;48.956;9.076;2024-01-30T11:47:20;8.10;99.90
12291;DHT22;6208;48.956;9.076;2024-01-30T11:50:04;6.30;99.90
12291;DHT22;6208;48.956;9.076;2024-01-30T11:52:50;6.60;99.90
12291;DHT22;6208;48.956;9.076;2024-01-30T11:55:34;6.60;99.90
12291;DHT22;6208;48.956;9.076;2024-01-30T11:58:25;6.70;99.90
12291;DHT22;6208;48.956;9.076;2024-01-30T12:01:11;6.50;99.90
12291;DHT22;6208;48.956;9.076;2024-01-30T12:03:55;6.80;99.90
12291;DHT22;6208;48.956;9.076;2024-01-30T12:06:41;6.80;99.90
12291;DHT22;6208;48.956;9.076;2024-01-30T12:09:25;6.80;99.90
12291;DHT22;6208;48.956;9.076;2024-01-30T12:12:09;6.90;99.90
12291;DHT22;6208;48.956;9.076;2024-01-30T12:14:56;6.90;99.90
12291;DHT22;6208;48.956;9.076;2024-01-30T12:17:41;6.90;99.90
12291;DHT22;6208;48.956;9.076;2024-01-30T12:20:25;7.00;99.90
12291;DHT22;6208;48.956;9.076;2024-01-30T12:23:12;7.00;99.90
12291;DHT22;6208;48.956;9.076;2024-01-30T12:25:57;7.00;99.90
12291;DHT22;6208;48.956;9.076;2024-01-30T12:28:49;7.50;99.90
12291;DHT22;6208;48.956;9.076;2024-01-30T12:31:36;7.10;99.90
12291;DHT22;6208;48.956;9.076;2024-01-30T12:34:20;7.20;99.90
12291;DHT22;6208;48.956;9.076;2024-01-30T12:37:05;7.20;99.90
12291;DHT22;6208;48.956;9.076;2024-01-30T12:39:53;7.30;99.90
12291;DHT22;6208;48.956;9.076;2024-01-30T12:42:38;7.30;99.90
12291;DHT22;6208;48.956;9.076;2024-01-30T12:45:23;7.60;99.90
12291;DHT22;6208;48.956;9.076;2024-01-30T12:48:08;7.30;99.90
12291;DHT22;6208;48.956;9.076;2024-01-30T12:50:52;7.60;99.90
12291;DHT22;6208;48.956;9.076;2024-01-30T12:53:37;7.40;99.90
12291;DHT22;6208;48.956;9.076;2024-01-30T12:56:21;7.50;99.90
12291;DHT22;6208;48.956;9.076;2024-01-30T12:59:05;7.60;99.90
12291;DHT22;6208;48.956;9.076;2024-01-30T13:01:49;8.00;99.90
12291;DHT22;6208;48.956;9.076;2024-01-30T13:04:34;7.70;99.90
12291;DHT22;6208;48.956;9.076;2024-01-30T13:07:18;7.70;99.90
12291;DHT22;6208;48.956;9.076;2024-01-30T13:10:05;7.90;99.90
12291;DHT22;6208;48.956;9.076;2024-01-30T13:12:50;7.90;99.90
12291;DHT22;6208;48.956;9.076;2024-01-30T13:15:34;8.00;99.90
12291;DHT22;6208;48.956;9.076;2024-01-30T13:18:18;8.00;99.90
12291;DHT22;6208;48.956;9.076;2024-01-30T13:21:02;8.00;99.90
12291;DHT22;6208;48.956;9.076;2024-01-30T13:23:46;8.00;99.90
12291;DHT22;6208;48.956;9.076;2024-01-30T13:26:34;8.00;99.90
12291;DHT22;6208;48.956;9.076;2024-01-30T13:29:19;8.10;99.90
12291;DHT22;6208;48.956;9.076;2024-01-30T13:32:03;8.10;99.90
12291;DHT22;6208;48.956;9.076;2024-01-30T13:34:48;8.10;99.90
12291;DHT22;6208;48.956;9.076;2024-01-30T13:37:32;8.20;99.90
12291;DHT22;6208;48.956;9.076;2024-01-30T13:40:16;8.20;99.90
12291;DHT22;6208;48.956;9.076;2024-01-30T13:43:00;8.30;99.90
12291;DHT22;6208;48.956;9.076;2024-01-30T13:45:44;8.40;99.90
12291;DHT22;6208;48.956;9.076;2024-01-30T13:48:30;8.30;99.90
12291;DHT22;6208;48.956;9.076;2024-01-30T13:51:15;8.30;99.90
12291;DHT22;6208;48.956;9.076;2024-01-30T13:54:01;8.30;99.90
12291;DHT22;6208;48.956;9.076;2024-01-30T13:56:45;8.50;99.90
12291;DHT22;6208;48.956;9.076;2024-01-30T13:59:29;8.20;99.90
12291;DHT22;6208;48.956;9.076;2024-01-30T14:02:13;9.20;99.90
12291;DHT22;6208;48.956;9.076;2024-01-30T14:04:57;8.30;99.90
12291;DHT22;6208;48.956;9.076;2024-01-30T14:07:43;8.30;99.90
12291;DHT22;6208;48.956;9.076;2024-01-30T14:10:27;8.40;99.90
12291;DHT22;6208;48.956;9.076;2024-01-30T14:13:11;8.60;99.90
12291;DHT22;6208;48.956;9.076;2024-01-30T14:15:56;8.50;99.90
12291;DHT22;6208;48.956;9.076;2024-01-30T14:18:40;8.70;99.90
12291;DHT22;6208;48.956;9.076;2024-01-30T14:21:25;8.40;99.90
12291;DHT22;6208;48.956;9.076;2024-01-30T14:24:09;8.40;99.90
12291;DHT22;6208;48.956;9.076;2024-01-30T14:26:53;8.40;99.90
12291;DHT22;6208;48.956;9.076;2024-01-30T14:29:38;8.50;99.90
12291;DHT22;6208;48.956;9.076;2024-01-30T14:32:23;8.40;99.90
12291;DHT22;6208;48.956;9.076;2024-01-30T14:35:08;8.50;99.90
12291;DHT22;6208;48.956;9.076;2024-01-30T14:37:53;8.50;99.90
12291;DHT22;6208;48.956;9.076;2024-01-30T14:40:38;9.00;99.90
12291;DHT22;6208;48.956;9.076;2024-01-30T14:43:23;8.80;99.90
12291;DHT22;6208;48.956;9.076;2024-01-30T14:46:07;8.50;99.90
12291;DHT22;6208;48.956;9.076;2024-01-30T14:48:51;9.40;99.90
12291;DHT22;6208;48.956;9.076;2024-01-30T14:51:35;8.40;99.90
12291;DHT22;6208;48.956;9.076;2024-01-30T14:54:19;8.60;99.90
12291;DHT22;6208;48.956;9.076;2024-01-30T14:57:04;8.80;99.90
12291;DHT22;6208;48.956;9.076;2024-01-30T14:59:48;8.60;99.90
12291;DHT22;6208;48.956;9.076;2024-01-30T15:02:32;8.50;99.90
12291;DHT22;6208;48.956;9.076;2024-01-30T15:05:16;8.50;99.90
12291;DHT22;6208;48.956;9.076;2024-01-30T15:08:00;8.50;99.90
12291;DHT22;6208;48.956;9.076;2024-01-30T15:10:45;8.50;99.90
12291;DHT22;6208;48.956;9.076;2024-01-30T15:13:29;8.50;99.90
12291;DHT22;6208;48.956;9.076;2024-01-30T15:16:13;8.30;99.90
12291;DHT22;6208;48.956;9.076;2024-01-30T15:18:58;8.50;99.90
12291;DHT22;6208;48.956;9.076;2024-01-30T15:21:41;8.50;99.90
12291;DHT22;6208;48.956;9.076;2024-01-30T15:24:26;8.40;99.90
12291;DHT22;6208;48.956;9.076;2024-01-30T15:27:09;8.50;99.90
12291;DHT22;6208;48.956;9.076;2024-01-30T15:29:54;8.50;99.90
12291;DHT22;6208;48.956;9.076;2024-01-30T15:32:38;8.60;99.90
12291;DHT22;6208;48.956;9.076;2024-01-30T15:35:22;8.50;99.90
12291;DHT22;6208;48.956;9.076;2024-01-30T15:38:07;8.40;99.90
12291;DHT22;6208;48.956;9.076;2024-01-30T15:40:53;8.40;99.90
12291;DHT22;6208;48.956;9.076;2024-01-30T15:43:37;8.40;99.90
12291;DHT22;6208;48.956;9.076;2024-01-30T15:46:21;8.40;99.90
12291;DHT22;6208;48.956;9.076;2024-01-30T15:49:06;8.40;99.90
12291;DHT22;6208;48.956;9.076;2024-01-30T15:51:51;8.40;99.90
12291;DHT22;6208;48.956;9.076;2024-01-30T15:54:35;8.30;99.90
12291;DHT22;6208;48.956;9.076;2024-01-30T15:57:19;8.30;99.90
12291;DHT22;6208;48.956;9.076;2024-01-30T16:00:03;9.10;99.90
12291;DHT22;6208;48.956;9.076;2024-01-30T16:02:47;8.30;99.90
12291;DHT22;6208;48.956;9.076;2024-01-30T16:05:32;8.30;99.90
12291;DHT22;6208;48.956;9.076;2024-01-30T16:08:16;8.50;99.90
12291;DHT22;6208;48.956;9.076;2024-01-30T16:11:00;8.30;99.90
12291;DHT22;6208;48.956;9.076;2024-01-30T16:13:44;8.40;99.90
12291;DHT22;6208;48.956;9.076;2024-01-30T16:16:28;8.30;99.90
12291;DHT22;6208;48.956;9.076;2024-01-30T16:19:12;8.40;99.90
12291;DHT22;6208;48.956;9.076;2024-01-30T16:21:57;8.30;99.90
12291;DHT22;6208;48.956;9.076;2024-01-30T16:24:41;8.30;99.90
12291;DHT22;6208;48.956;9.076;2024-01-30T16:27:25;9.20;99.90
12291;DHT22;6208;48.956;9.076;2024-01-30T16:30:09;8.40;99.90
12291;DHT22;6208;48.956;9.076;2024-01-30T16:32:54;8.40;99.90
12291;DHT22;6208;48.956;9.076;2024-01-30T16:35:38;8.40;99.90
12291;DHT22;6208;48.956;9.076;2024-01-30T16:38:23;8.30;99.90
12291;DHT22;6208;48.956;9.076;2024-01-30T16:41:07;8.40;99.90
12291;DHT22;6208;48.956;9.076;2024-01-30T16:43:51;8.40;99.90
12291;DHT22;6208;48.956;9.076;2024-01-30T16:46:35;8.40;99.90
12291;DHT22;6208;48.956;9.076;2024-01-30T16:49:22;8.40;99.90
12291;DHT22;6208;48.956;9.076;2024-01-30T16:52:06;8.70;99.90
12291;DHT22;6208;48.956;9.076;2024-01-30T16:54:50;8.30;99.90
12291;DHT22;6208;48.956;9.076;2024-01-30T16:57:34;8.50;99.90
12291;DHT22;6208;48.956;9.076;2024-01-30T17:00:18;8.20;99.90
12291;DHT22;6208;48.956;9.076;2024-01-30T17:03:02;8.20;99.90
12291;DHT22;6208;48.956;9.076;2024-01-30T17:05:47;8.20;99.90
12291;DHT22;6208;48.956;9.076;2024-01-30T17:08:34;8.20;99.90
12291;DHT22;6208;48.956;9.076;2024-01-30T17:11:18;8.20;99.90
12291;DHT22;6208;48.956;9.076;2024-01-30T17:14:03;8.20;99.90
12291;DHT22;6208;48.956;9.076;2024-01-30T17:16:47;8.10;99.90
12291;DHT22;6208;48.956;9.076;2024-01-30T17:19:32;8.10;99.90
12291;DHT22;6208;48.956;9.076;2024-01-30T17:22:16;8.10;99.90
12291;DHT22;6208;48.956;9.076;2024-01-30T17:25:02;8.10;99.90
12291;DHT22;6208;48.956;9.076;2024-01-30T17:27:46;8.10;99.90
12291;DHT22;6208;48.956;9.076;2024-01-30T17:30:30;8.00;99.90
12291;DHT22;6208;48.956;9.076;2024-01-30T17:33:14;8.20;99.90
12291;DHT22;6208;48.956;9.076;2024-01-30T17:35:59;8.30;99.90
12291;DHT22;6208;48.956;9.076;2024-01-30T17:38:44;8.00;99.90
12291;DHT22;6208;48.956;9.076;2024-01-30T17:41:28;8.20;99.90
12291;DHT22;6208;48.956;9.076;2024-01-30T17:44:12;8.20;99.90
12291;DHT22;6208;48.956;9.076;2024-01-30T17:46:57;8.00;99.90
12291;DHT22;6208;48.956;9.076;2024-01-30T17:49:41;8.00;99.90
12291;DHT22;6208;48.956;9.076;2024-01-30T17:52:25;8.00;99.90
12291;DHT22;6208;48.956;9.076;2024-01-30T17:55:10;8.10;99.90
12291;DHT22;6208;48.956;9.076;2024-01-30T17:57:54;8.10;99.90
12291;DHT22;6208;48.956;9.076;2024-01-30T18:00:38;8.60;99.90
12291;DHT22;6208;48.956;9.076;2024-01-30T18:03:22;8.10;99.90
12291;DHT22;6208;48.956;9.076;2024-01-30T18:06:06;8.00;99.90